createdAt,value
2023-09-23T00:01:00.944Z,0.60
2023-09-23T00:02:34.431Z,0.50
2023-09-23T00:04:07.865Z,0.50
2023-09-23T00:05:40.558Z,0.50
2023-09-23T00:07:13.331Z,0.70
2023-09-23T00:08:45.750Z,0.50
2023-09-23T00:10:18.717Z,0.80
2023-09-23T00:11:51.816Z,0.70
2023-09-23T00:13:24.571Z,0.63
2023-09-23T00:14:58.375Z,0.70
2023-09-23T00:16:31.203Z,0.70
2023-09-23T00:18:03.342Z,0.50
2023-09-23T00:19:36.723Z,0.50
2023-09-23T00:21:09.375Z,0.47
2023-09-23T00:22:42.472Z,0.60
2023-09-23T00:24:15.311Z,0.67
2023-09-23T00:25:47.985Z,0.60
2023-09-23T00:27:22.930Z,0.60
2023-09-23T00:28:54.741Z,0.67
2023-09-23T00:30:27.724Z,0.80
2023-09-23T00:32:00.643Z,0.60
2023-09-23T00:33:32.789Z,0.57
2023-09-23T00:35:06.580Z,0.70
2023-09-23T00:36:39.304Z,0.60
2023-09-23T00:38:12.752Z,0.57
2023-09-23T00:39:44.617Z,0.60
2023-09-23T00:41:17.366Z,0.60
2023-09-23T00:42:51.258Z,0.60
2023-09-23T00:44:25.607Z,0.60
2023-09-23T00:45:57.421Z,0.60
2023-09-23T00:47:32.135Z,0.70
2023-09-23T00:49:08.754Z,0.67
2023-09-23T00:50:40.629Z,0.70
2023-09-23T00:52:15.942Z,0.60
2023-09-23T00:53:48.544Z,0.70
2023-09-23T00:55:21.903Z,0.60
2023-09-23T00:56:53.776Z,0.73
2023-09-23T00:58:28.236Z,0.80
2023-09-23T01:00:00.039Z,0.80
2023-09-23T01:01:33.378Z,0.80
2023-09-23T01:03:05.421Z,0.73
2023-09-23T01:04:38.367Z,0.73
2023-09-23T01:06:16.820Z,0.70
2023-09-23T01:07:50.062Z,0.73
2023-09-23T01:09:23.835Z,0.80
2023-09-23T01:10:55.646Z,0.60
2023-09-23T01:12:28.397Z,0.70
2023-09-23T01:14:03.673Z,0.67
2023-09-23T01:15:41.177Z,0.70
2023-09-23T01:17:12.960Z,0.70
2023-09-23T01:18:47.250Z,0.70
2023-09-23T01:20:19.398Z,0.60
2023-09-23T01:21:52.151Z,0.77
2023-09-23T01:23:25.386Z,0.60
2023-09-23T01:24:59.817Z,0.70
2023-09-23T01:26:32.505Z,0.80
2023-09-23T01:28:05.304Z,0.80
2023-09-23T01:29:38.029Z,0.80
2023-09-23T01:31:10.326Z,0.50
2023-09-23T01:32:49.093Z,0.63
2023-09-23T01:34:20.875Z,0.80
2023-09-23T01:35:56.730Z,0.80
2023-09-23T01:37:28.496Z,0.70
2023-09-23T01:39:05.859Z,0.73
2023-09-23T01:40:40.686Z,0.77
2023-09-23T01:42:13.434Z,0.70
2023-09-23T01:43:46.098Z,0.70
2023-09-23T01:45:20.312Z,0.70
2023-09-23T01:46:53.343Z,1.00
2023-09-23T01:48:28.100Z,1.10
2023-09-23T01:50:00.469Z,0.90
2023-09-23T01:51:33.185Z,0.90
2023-09-23T01:53:05.365Z,0.83
2023-09-23T01:54:39.442Z,0.80
2023-09-23T01:56:11.214Z,0.83
2023-09-23T01:57:44.073Z,0.70
2023-09-23T01:59:15.861Z,0.70
2023-09-23T02:00:48.665Z,0.80
2023-09-23T02:02:20.508Z,0.90
2023-09-23T02:03:53.400Z,0.83
2023-09-23T02:05:28.338Z,1.10
2023-09-23T02:07:01.573Z,0.97
2023-09-23T02:08:34.360Z,0.97
2023-09-23T02:10:09.974Z,1.10
2023-09-23T02:11:42.695Z,0.80
2023-09-23T02:13:15.448Z,1.00
2023-09-23T02:14:47.233Z,0.70
2023-09-23T02:16:20.072Z,1.00
2023-09-23T02:17:52.553Z,0.80
2023-09-23T02:19:26.922Z,0.83
2023-09-23T02:20:58.671Z,0.90
2023-09-23T02:22:31.712Z,1.10
2023-09-23T02:24:03.605Z,1.13
2023-09-23T02:25:38.442Z,1.00
2023-09-23T02:27:10.220Z,1.00
2023-09-23T02:28:42.948Z,1.03
2023-09-23T02:30:15.383Z,1.13
2023-09-23T02:31:50.020Z,1.10
2023-09-23T02:33:21.994Z,0.90
2023-09-23T02:34:54.759Z,1.10
2023-09-23T02:36:26.501Z,1.30
2023-09-23T02:37:59.425Z,1.13
2023-09-23T02:39:31.282Z,1.00
2023-09-23T02:41:06.489Z,1.13
2023-09-23T02:42:40.669Z,1.20
2023-09-23T02:44:20.084Z,1.20
2023-09-23T02:45:58.990Z,1.30
2023-09-23T02:47:31.546Z,1.30
2023-09-23T02:49:04.901Z,1.30
2023-09-23T02:50:38.388Z,1.37
2023-09-23T02:52:11.075Z,1.20
2023-09-23T02:53:46.032Z,1.10
2023-09-23T02:55:20.214Z,1.00
2023-09-23T02:56:54.318Z,1.20
2023-09-23T02:58:26.087Z,1.37
2023-09-23T03:00:00.225Z,1.20
2023-09-23T03:01:32.143Z,1.30
2023-09-23T03:03:10.252Z,1.40
2023-09-23T03:04:44.842Z,1.27
2023-09-23T03:06:19.212Z,1.30
2023-09-23T03:07:51.559Z,1.50
2023-09-23T03:09:26.311Z,1.40
2023-09-23T03:11:03.697Z,1.40
2023-09-23T03:12:42.108Z,1.50
2023-09-23T03:14:18.971Z,1.37
2023-09-23T03:15:54.032Z,1.80
2023-09-23T03:17:26.685Z,1.70
2023-09-23T03:19:11.657Z,1.60
2023-09-23T03:20:43.618Z,1.53
2023-09-23T03:22:16.289Z,1.50
2023-09-23T03:23:48.033Z,1.50
2023-09-23T03:25:21.201Z,1.73
2023-09-23T03:26:53.472Z,1.30
2023-09-23T03:28:27.532Z,1.33
2023-09-23T03:30:04.295Z,1.77
2023-09-23T03:31:37.574Z,1.40
2023-09-23T03:33:09.387Z,1.50
2023-09-23T03:34:42.977Z,1.40
2023-09-23T03:36:15.269Z,1.70
2023-09-23T03:37:51.513Z,1.60
2023-09-23T03:39:25.798Z,1.40
2023-09-23T03:41:00.687Z,1.60
2023-09-23T03:42:33.508Z,1.53
2023-09-23T03:44:08.498Z,1.60
2023-09-23T03:45:41.221Z,1.70
2023-09-23T03:47:13.981Z,1.70
2023-09-23T03:48:46.441Z,1.60
2023-09-23T03:50:19.832Z,1.50
2023-09-23T03:51:51.664Z,1.70
2023-09-23T03:53:24.906Z,1.97
2023-09-23T03:54:58.280Z,1.47
2023-09-23T03:56:34.083Z,1.70
2023-09-23T03:58:05.885Z,1.60
2023-09-23T03:59:40.459Z,1.67
2023-09-23T04:01:15.039Z,1.60
2023-09-23T04:02:48.733Z,1.87
2023-09-23T04:04:21.796Z,1.70
2023-09-23T04:05:59.144Z,1.60
2023-09-23T04:07:33.128Z,1.83
2023-09-23T04:09:08.456Z,1.80
2023-09-23T04:10:40.985Z,1.50
2023-09-23T04:12:14.273Z,1.53
2023-09-23T04:13:46.148Z,1.63
2023-09-23T04:15:20.625Z,1.80
2023-09-23T04:16:52.583Z,1.90
2023-09-23T04:18:25.302Z,1.67
2023-09-23T04:19:57.313Z,1.70
2023-09-23T04:21:32.209Z,2.00
2023-09-23T04:23:04.503Z,1.93
2023-09-23T04:24:37.487Z,1.67
2023-09-23T04:26:09.635Z,1.70
2023-09-23T04:27:42.581Z,2.00
2023-09-23T04:29:15.353Z,2.00
2023-09-23T04:30:51.458Z,1.90
2023-09-23T04:32:23.330Z,2.00
2023-09-23T04:33:56.169Z,2.20
2023-09-23T04:35:27.940Z,2.03
2023-09-23T04:37:00.638Z,2.07
2023-09-23T04:38:32.381Z,1.87
2023-09-23T04:40:10.423Z,2.10
2023-09-23T04:41:42.349Z,1.93
2023-09-23T04:43:17.402Z,2.17
2023-09-23T04:44:49.325Z,2.43
2023-09-23T04:46:23.422Z,2.20
2023-09-23T04:47:55.692Z,2.30
2023-09-23T04:49:29.003Z,2.30
2023-09-23T04:51:00.772Z,2.20
2023-09-23T04:52:33.783Z,2.57
2023-09-23T04:54:05.781Z,2.20
2023-09-23T04:55:38.711Z,2.53
2023-09-23T04:57:10.526Z,2.40
2023-09-23T04:58:43.552Z,2.30
2023-09-23T05:00:20.163Z,2.73
2023-09-23T05:01:54.625Z,2.40
2023-09-23T05:03:26.443Z,2.53
2023-09-23T05:04:59.357Z,2.90
2023-09-23T05:06:32.966Z,2.60
2023-09-23T05:08:11.073Z,2.67
2023-09-23T05:09:43.325Z,3.10
2023-09-23T05:11:16.033Z,2.87
2023-09-23T05:12:47.812Z,3.10
2023-09-23T05:14:21.736Z,3.10
2023-09-23T05:15:54.500Z,3.20
2023-09-23T05:17:28.729Z,3.30
2023-09-23T05:19:01.527Z,3.20
2023-09-23T05:20:34.720Z,3.50
2023-09-23T05:22:09.417Z,3.57
2023-09-23T05:23:42.784Z,3.40
2023-09-23T05:25:14.738Z,4.03
2023-09-23T05:26:50.212Z,4.20
2023-09-23T05:28:21.934Z,4.20
2023-09-23T05:29:55.549Z,3.70
2023-09-23T05:31:28.218Z,4.30
2023-09-23T05:33:02.415Z,4.20
2023-09-23T05:34:34.366Z,3.77
2023-09-23T05:36:07.389Z,3.67
2023-09-23T05:37:40.733Z,4.00
2023-09-23T05:39:15.454Z,4.60
2023-09-23T05:40:47.225Z,3.83
2023-09-23T05:42:24.990Z,4.60
2023-09-23T05:43:56.777Z,4.53
2023-09-23T05:45:30.995Z,5.00
2023-09-23T05:47:04.879Z,5.13
2023-09-23T05:48:40.882Z,4.50
2023-09-23T05:50:12.724Z,4.97
2023-09-23T05:51:46.560Z,5.10
2023-09-23T05:53:19.329Z,4.90
2023-09-23T05:54:51.874Z,4.87
2023-09-23T05:56:24.633Z,5.17
2023-09-23T05:57:56.414Z,4.70
2023-09-23T05:59:29.175Z,5.10
2023-09-23T06:01:02.049Z,4.83
2023-09-23T06:02:33.893Z,4.70
2023-09-23T06:04:10.911Z,4.63
2023-09-23T06:05:43.708Z,4.57
2023-09-23T06:07:16.473Z,5.00
2023-09-23T06:08:49.084Z,4.80
2023-09-23T06:10:21.782Z,5.00
2023-09-23T06:11:53.634Z,4.90
2023-09-23T06:13:26.340Z,4.83
2023-09-23T06:14:58.554Z,5.00
2023-09-23T06:16:31.274Z,4.40
2023-09-23T06:18:04.562Z,5.07
2023-09-23T06:19:38.671Z,4.20
2023-09-23T06:21:11.382Z,4.60
2023-09-23T06:22:43.137Z,4.57
2023-09-23T06:24:15.821Z,4.67
2023-09-23T06:25:53.623Z,4.67
2023-09-23T06:27:26.361Z,4.40
2023-09-23T06:28:58.146Z,4.40
2023-09-23T06:30:31.276Z,4.25
2023-09-23T06:32:05.109Z,4.70
2023-09-23T06:33:37.982Z,4.70
2023-09-23T06:35:11.995Z,4.30
2023-09-23T06:36:44.689Z,4.77
2023-09-23T06:38:16.692Z,4.63
2023-09-23T06:39:49.486Z,4.77
2023-09-23T06:41:21.415Z,4.80
2023-09-23T06:42:54.152Z,4.80
2023-09-23T06:44:25.951Z,4.60
2023-09-23T06:45:59.377Z,4.33
2023-09-23T06:47:31.265Z,4.43
2023-09-23T06:49:04.106Z,4.20
2023-09-23T06:50:37.344Z,4.20
2023-09-23T06:52:10.043Z,4.50
2023-09-23T06:53:43.387Z,4.87
2023-09-23T06:55:16.934Z,4.90
2023-09-23T06:56:48.688Z,4.20
2023-09-23T06:58:21.432Z,3.93
2023-09-23T06:59:54.111Z,4.10
2023-09-23T07:01:25.938Z,4.07
2023-09-23T07:02:58.743Z,4.40
2023-09-23T07:04:30.677Z,4.47
2023-09-23T07:06:04.813Z,4.13
2023-09-23T07:07:36.561Z,4.30
2023-09-23T07:09:09.287Z,3.90
2023-09-23T07:10:42.306Z,4.00
2023-09-23T07:12:15.034Z,4.00
2023-09-23T07:13:47.638Z,4.10
2023-09-23T07:15:20.683Z,4.50
2023-09-23T07:16:53.481Z,4.20
2023-09-23T07:18:25.351Z,3.80
2023-09-23T07:19:58.074Z,3.87
2023-09-23T07:21:31.316Z,4.03
2023-09-23T07:23:04.274Z,4.43
2023-09-23T07:24:36.319Z,4.00
2023-09-23T07:26:09.032Z,4.10
2023-09-23T07:27:40.913Z,3.70
2023-09-23T07:29:13.638Z,4.00
2023-09-23T07:30:45.422Z,3.60
2023-09-23T07:32:18.285Z,3.10
2023-09-23T07:33:50.338Z,2.83
2023-09-23T07:35:23.247Z,2.80
2023-09-23T07:36:56.401Z,2.60
2023-09-23T07:38:29.101Z,2.70
2023-09-23T07:40:00.950Z,2.30
2023-09-23T07:41:33.621Z,2.47
2023-09-23T07:43:05.819Z,2.33
2023-09-23T07:44:38.499Z,2.30
2023-09-23T07:46:11.240Z,2.27
2023-09-23T07:47:44.078Z,2.30
2023-09-23T07:49:15.860Z,2.23
2023-09-23T07:50:48.590Z,2.40
2023-09-23T07:52:21.658Z,2.50
2023-09-23T07:53:54.359Z,2.03
2023-09-23T07:55:27.183Z,2.27
2023-09-23T07:56:58.945Z,2.40
2023-09-23T07:58:31.763Z,2.50
2023-09-23T08:00:04.879Z,2.40
2023-09-23T08:01:37.925Z,2.33
2023-09-23T08:03:09.721Z,2.10
2023-09-23T08:04:42.599Z,2.20
2023-09-23T08:06:14.566Z,2.63
2023-09-23T08:07:48.663Z,2.30
2023-09-23T08:09:20.492Z,2.13
2023-09-23T08:10:54.351Z,2.30
2023-09-23T08:12:26.245Z,2.37
2023-09-23T08:13:58.947Z,2.20
2023-09-23T08:15:30.711Z,2.30
2023-09-23T08:17:03.622Z,2.37
2023-09-23T08:18:36.342Z,2.23
2023-09-23T08:20:19.029Z,2.30
2023-09-23T08:21:51.149Z,2.30
2023-09-23T08:23:25.315Z,2.43
2023-09-23T08:24:58.188Z,2.13
2023-09-23T08:26:31.607Z,2.07
2023-09-23T08:28:04.078Z,2.40
2023-09-23T08:29:37.346Z,1.97
2023-09-23T08:31:10.086Z,2.20
2023-09-23T08:32:41.954Z,2.10
2023-09-23T08:34:14.704Z,2.33
2023-09-23T08:35:48.594Z,2.00
2023-09-23T08:37:21.575Z,2.10
2023-09-23T08:38:54.767Z,2.13
2023-09-23T08:40:28.016Z,2.30
2023-09-23T08:42:02.960Z,2.07
2023-09-23T08:43:38.719Z,1.93
2023-09-23T08:45:10.970Z,1.83
2023-09-23T08:46:45.131Z,2.23
2023-09-23T08:48:18.282Z,2.17
2023-09-23T08:49:52.410Z,2.20
2023-09-23T08:51:25.473Z,2.30
2023-09-23T08:53:00.203Z,2.20
2023-09-23T08:54:34.284Z,1.90
2023-09-23T08:56:07.934Z,2.20
2023-09-23T08:57:39.744Z,2.00
2023-09-23T08:59:12.666Z,2.00
2023-09-23T09:00:47.837Z,2.00
2023-09-23T09:02:26.896Z,2.20
2023-09-23T09:03:58.983Z,1.70
2023-09-23T09:05:39.763Z,1.70
2023-09-23T09:07:11.590Z,3.00
2023-09-23T09:08:44.750Z,2.50
2023-09-23T09:10:18.514Z,2.00
2023-09-23T09:11:52.996Z,2.13
2023-09-23T09:13:24.740Z,1.70
2023-09-23T09:14:57.620Z,2.03
2023-09-23T09:16:30.686Z,1.77
2023-09-23T09:18:03.495Z,1.80
2023-09-23T09:19:36.734Z,1.90
2023-09-23T09:21:09.551Z,2.10
2023-09-23T09:22:41.446Z,1.90
2023-09-23T09:24:14.190Z,1.77
2023-09-23T09:25:48.176Z,1.77
2023-09-23T09:27:22.801Z,1.90
2023-09-23T09:28:55.916Z,1.90
2023-09-23T09:30:27.863Z,1.80
2023-09-23T09:32:02.274Z,1.80
2023-09-23T09:33:37.303Z,1.90
2023-09-23T09:35:14.736Z,2.00
2023-09-23T09:36:46.628Z,1.70
2023-09-23T09:38:21.968Z,1.70
2023-09-23T09:39:58.628Z,1.90
2023-09-23T09:41:42.667Z,1.83
2023-09-23T09:43:14.659Z,1.80
2023-09-23T09:44:47.954Z,1.80
2023-09-23T09:46:21.964Z,1.90
2023-09-23T09:47:56.612Z,1.90
2023-09-23T09:49:30.020Z,1.80
2023-09-23T09:51:03.585Z,1.67
2023-09-23T09:52:38.082Z,1.63
2023-09-23T09:54:12.575Z,2.07
2023-09-23T09:55:45.940Z,1.97
2023-09-23T09:57:20.431Z,1.73
2023-09-23T09:58:56.589Z,1.73
2023-09-23T10:00:36.868Z,1.63
2023-09-23T10:02:10.823Z,2.10
2023-09-23T10:03:44.156Z,1.40
2023-09-23T10:05:18.475Z,1.50
2023-09-23T10:06:54.720Z,1.60
2023-09-23T10:08:27.624Z,1.60
2023-09-23T10:10:00.509Z,1.43
2023-09-23T10:11:36.016Z,1.73
2023-09-23T10:13:13.449Z,1.53
2023-09-23T10:14:55.580Z,1.80
2023-09-23T10:16:29.654Z,1.90
2023-09-23T10:18:04.848Z,1.53
2023-09-23T10:19:40.833Z,1.73
2023-09-23T10:21:24.033Z,1.60
2023-09-23T10:23:00.334Z,1.70
2023-09-23T10:24:34.508Z,1.73
2023-09-23T10:26:15.842Z,1.60
2023-09-23T10:27:57.760Z,1.40
2023-09-23T10:29:42.316Z,1.50
2023-09-23T10:31:16.719Z,1.57
2023-09-23T10:32:48.878Z,1.30
2023-09-23T10:34:21.601Z,1.30
2023-09-23T10:35:53.756Z,1.40
2023-09-23T10:37:27.758Z,1.50
2023-09-23T10:39:01.015Z,1.50
2023-09-23T10:40:32.823Z,1.33
2023-09-23T10:42:05.777Z,1.23
2023-09-23T10:43:37.548Z,1.30
2023-09-23T10:45:12.870Z,1.10
2023-09-23T10:46:47.298Z,1.10
2023-09-23T10:48:20.235Z,1.40
2023-09-23T10:49:52.109Z,1.30
2023-09-23T10:51:24.958Z,1.20
2023-09-23T10:52:56.856Z,1.60
2023-09-23T10:54:30.239Z,1.40
2023-09-23T10:56:03.496Z,1.30
2023-09-23T10:57:36.127Z,1.20
2023-09-23T10:59:09.149Z,1.30
2023-09-23T11:00:42.945Z,1.30
2023-09-23T11:02:15.750Z,1.20
2023-09-23T11:03:48.801Z,1.20
2023-09-23T11:05:22.327Z,1.40
2023-09-23T11:06:55.143Z,1.40
2023-09-23T11:08:27.510Z,1.50
2023-09-23T11:10:00.267Z,1.23
2023-09-23T11:11:35.190Z,1.33
2023-09-23T11:13:09.945Z,1.60
2023-09-23T11:14:43.464Z,1.40
2023-09-23T11:16:17.627Z,1.47
2023-09-23T11:17:49.797Z,1.43
2023-09-23T11:19:22.921Z,1.13
2023-09-23T11:20:55.652Z,1.40
2023-09-23T11:22:28.660Z,1.40
2023-09-23T11:24:02.525Z,1.23
2023-09-23T11:25:37.694Z,1.20
2023-09-23T11:27:10.476Z,1.50
2023-09-23T11:28:42.239Z,1.40
2023-09-23T11:30:15.149Z,1.30
2023-09-23T11:31:48.306Z,1.40
2023-09-23T11:33:22.118Z,1.30
2023-09-23T11:34:54.964Z,1.40
2023-09-23T11:36:27.840Z,1.23
2023-09-23T11:37:59.675Z,1.10
2023-09-23T11:39:36.369Z,1.60
2023-09-23T11:41:09.154Z,1.40
2023-09-23T11:42:40.926Z,1.40
2023-09-23T11:44:13.656Z,1.20
2023-09-23T11:45:49.480Z,1.30
2023-09-23T11:47:23.739Z,1.50
2023-09-23T11:48:55.576Z,1.23
2023-09-23T11:50:28.706Z,1.30
2023-09-23T11:52:00.542Z,1.20
2023-09-23T11:53:33.325Z,1.30
2023-09-23T11:55:06.526Z,1.27
2023-09-23T11:56:39.295Z,1.30
2023-09-23T11:58:11.080Z,1.40
2023-09-23T11:59:44.157Z,1.23
2023-09-23T12:01:17.380Z,1.17
2023-09-23T12:02:51.640Z,1.27
2023-09-23T12:04:23.684Z,1.40
2023-09-23T12:05:56.487Z,1.27
2023-09-23T12:07:28.306Z,1.50
2023-09-23T12:09:01.499Z,1.47
2023-09-23T12:10:34.200Z,1.47
2023-09-23T12:12:06.480Z,1.37
2023-09-23T12:13:39.330Z,1.50
2023-09-23T12:15:11.544Z,1.33
2023-09-23T12:16:45.461Z,1.33
2023-09-23T12:18:19.605Z,1.30
2023-09-23T12:19:51.527Z,1.87
2023-09-23T12:21:24.247Z,1.23
2023-09-23T12:22:58.577Z,1.20
2023-09-23T12:24:31.645Z,1.30
2023-09-23T12:26:04.382Z,1.30
2023-09-23T12:27:37.228Z,1.37
2023-09-23T12:29:09.773Z,1.20
2023-09-23T12:30:42.614Z,1.43
2023-09-23T12:32:14.442Z,1.10
2023-09-23T12:33:48.513Z,1.20
2023-09-23T12:35:20.467Z,1.10
2023-09-23T12:36:53.244Z,1.17
2023-09-23T12:38:25.168Z,1.27
2023-09-23T12:39:57.891Z,1.40
2023-09-23T12:41:29.702Z,1.40
2023-09-23T12:43:02.818Z,1.40
2023-09-23T12:44:35.602Z,1.17
2023-09-23T12:46:07.519Z,1.30
2023-09-23T12:47:52.936Z,1.17
2023-09-23T12:49:27.654Z,1.20
2023-09-23T12:50:59.503Z,1.20
2023-09-23T12:52:32.226Z,1.03
2023-09-23T12:54:05.212Z,1.20
2023-09-23T12:55:37.989Z,1.30
2023-09-23T12:57:09.716Z,1.27
2023-09-23T12:58:42.667Z,1.40
2023-09-23T13:00:15.834Z,1.50
2023-09-23T13:01:48.516Z,1.50
2023-09-23T13:03:20.470Z,1.20
2023-09-23T13:04:54.741Z,1.20
2023-09-23T13:06:26.676Z,1.67
2023-09-23T13:07:59.393Z,1.00
2023-09-23T13:09:31.558Z,1.50
2023-09-23T13:11:04.516Z,1.10
2023-09-23T13:12:36.850Z,1.40
2023-09-23T13:14:10.379Z,1.30
2023-09-23T13:15:42.212Z,1.40
2023-09-23T13:17:14.992Z,1.50
2023-09-23T13:18:47.912Z,1.13
2023-09-23T13:20:21.259Z,1.30
2023-09-23T13:21:53.985Z,1.20
2023-09-23T13:23:25.837Z,1.10
2023-09-23T13:24:58.562Z,1.30
2023-09-23T13:26:30.356Z,1.50
2023-09-23T13:28:03.065Z,1.10
2023-09-23T13:29:35.810Z,1.33
2023-09-23T13:31:08.742Z,1.20
2023-09-23T13:32:40.605Z,1.30
2023-09-23T13:34:13.558Z,1.10
2023-09-23T13:35:48.139Z,1.10
2023-09-23T13:37:20.869Z,1.30
2023-09-23T13:38:53.829Z,1.30
2023-09-23T13:40:25.579Z,1.20
2023-09-23T13:41:58.443Z,1.33
2023-09-23T13:43:30.209Z,1.03
2023-09-23T13:45:02.937Z,1.33
2023-09-23T13:46:34.878Z,1.60
2023-09-23T13:48:09.543Z,1.70
2023-09-23T13:49:41.430Z,1.30
2023-09-23T13:51:15.660Z,1.40
2023-09-23T13:52:47.948Z,1.40
2023-09-23T13:54:20.649Z,1.60
2023-09-23T13:55:52.445Z,1.60
2023-09-23T13:57:25.180Z,1.60
2023-09-23T13:58:56.925Z,1.20
2023-09-23T14:00:30.185Z,1.30
2023-09-23T14:02:03.800Z,1.57
2023-09-23T14:03:36.803Z,1.57
2023-09-23T14:05:10.739Z,1.27
2023-09-23T14:06:44.921Z,1.07
2023-09-23T14:08:16.714Z,1.30
2023-09-23T14:09:50.460Z,1.20
2023-09-23T14:11:22.315Z,1.40
2023-09-23T14:12:55.058Z,1.30
2023-09-23T14:14:26.996Z,1.80
2023-09-23T14:15:59.744Z,1.70
2023-09-23T14:17:31.591Z,1.50
2023-09-23T14:19:04.406Z,1.60
2023-09-23T14:20:36.322Z,1.50
2023-09-23T14:22:10.404Z,1.50
2023-09-23T14:23:42.185Z,1.30
2023-09-23T14:25:15.551Z,1.50
2023-09-23T14:26:47.673Z,1.13
2023-09-23T14:28:20.513Z,1.50
2023-09-23T14:29:52.657Z,1.20
2023-09-23T14:31:25.414Z,1.63
2023-09-23T14:32:57.415Z,1.60
2023-09-23T14:34:32.499Z,1.30
2023-09-23T14:36:06.055Z,1.30
2023-09-23T14:37:40.729Z,1.40
2023-09-23T14:39:13.431Z,1.50
2023-09-23T14:40:47.319Z,1.33
2023-09-23T14:42:19.283Z,1.50
2023-09-23T14:43:52.504Z,1.57
2023-09-23T14:45:24.365Z,1.50
2023-09-23T14:46:57.068Z,1.50
2023-09-23T14:48:28.937Z,1.40
2023-09-23T14:50:01.975Z,1.47
2023-09-23T14:51:33.807Z,1.40
2023-09-23T14:53:07.936Z,1.40
2023-09-23T14:54:39.710Z,1.53
2023-09-23T14:56:12.509Z,1.47
2023-09-23T14:57:44.423Z,1.40
2023-09-23T14:59:17.249Z,1.27
2023-09-23T15:00:49.968Z,1.40
2023-09-23T15:02:21.958Z,1.40
2023-09-23T15:03:55.064Z,1.20
2023-09-23T15:05:27.951Z,1.60
2023-09-23T15:07:00.378Z,1.43
2023-09-23T15:08:46.249Z,1.40
2023-09-23T15:10:26.715Z,1.33
2023-09-23T15:11:58.571Z,1.50
2023-09-23T15:13:32.234Z,1.40
2023-09-23T15:15:05.441Z,1.70
2023-09-23T15:16:37.240Z,1.43
2023-09-23T15:18:10.148Z,1.80
2023-09-23T15:19:43.983Z,1.70
2023-09-23T15:21:15.776Z,1.60
2023-09-23T15:22:49.486Z,1.70
2023-09-23T15:24:22.601Z,1.10
2023-09-23T15:25:55.292Z,1.40
2023-09-23T15:27:27.042Z,1.83
2023-09-23T15:29:00.463Z,1.80
2023-09-23T15:30:33.220Z,1.50
2023-09-23T15:32:05.269Z,1.50
2023-09-23T15:33:38.438Z,1.30
2023-09-23T15:35:12.500Z,1.60
2023-09-23T15:36:44.291Z,1.30
2023-09-23T15:38:17.191Z,1.50
2023-09-23T15:39:51.384Z,1.30
2023-09-23T15:41:24.281Z,1.27
2023-09-23T15:42:56.102Z,1.40
2023-09-23T15:44:28.896Z,1.60
2023-09-23T15:46:01.561Z,1.40
2023-09-23T15:47:34.547Z,1.40
2023-09-23T15:49:07.314Z,1.30
2023-09-23T15:50:39.125Z,1.50
2023-09-23T15:52:11.990Z,1.50
2023-09-23T15:53:44.410Z,1.50
2023-09-23T15:55:19.205Z,1.50
2023-09-23T15:56:50.966Z,1.60
2023-09-23T15:58:25.139Z,1.50
2023-09-23T15:59:58.200Z,1.60
2023-09-23T16:01:30.954Z,2.10
2023-09-23T16:03:02.828Z,1.87
2023-09-23T16:04:35.888Z,2.13
2023-09-23T16:06:08.577Z,1.70
2023-09-23T16:07:41.294Z,1.60
2023-09-23T16:09:13.048Z,1.87
2023-09-23T16:10:47.193Z,1.80
2023-09-23T16:12:19.882Z,1.40
2023-09-23T16:13:51.683Z,1.73
2023-09-23T16:15:24.375Z,1.60
2023-09-23T16:16:56.285Z,1.53
2023-09-23T16:18:29.149Z,1.50
2023-09-23T16:20:01.000Z,1.80
2023-09-23T16:21:33.725Z,1.47
2023-09-23T16:23:05.854Z,1.63
2023-09-23T16:24:38.551Z,1.60
2023-09-23T16:26:11.694Z,2.00
2023-09-23T16:27:45.278Z,1.57
2023-09-23T16:29:18.109Z,1.80
2023-09-23T16:30:49.926Z,1.47
2023-09-23T16:32:22.710Z,2.00
2023-09-23T16:33:55.487Z,1.50
2023-09-23T16:35:29.652Z,1.57
2023-09-23T16:37:01.425Z,1.30
2023-09-23T16:38:34.143Z,1.63
2023-09-23T16:40:08.439Z,1.47
2023-09-23T16:41:43.559Z,1.77
2023-09-23T16:43:16.293Z,1.37
2023-09-23T16:44:48.031Z,1.70
2023-09-23T16:46:20.831Z,2.37
2023-09-23T16:47:52.773Z,1.87
2023-09-23T16:49:25.575Z,2.60
2023-09-23T16:50:58.122Z,2.20
2023-09-23T16:52:30.883Z,2.77
2023-09-23T16:54:02.901Z,2.67
2023-09-23T16:55:35.725Z,3.10
2023-09-23T16:57:08.799Z,2.60
2023-09-23T16:58:41.524Z,2.00
2023-09-23T17:00:13.798Z,2.47
2023-09-23T17:01:46.557Z,1.90
2023-09-23T17:03:19.591Z,2.30
2023-09-23T17:04:51.500Z,2.47
2023-09-23T17:06:25.598Z,1.93
2023-09-23T17:07:58.663Z,2.57
2023-09-23T17:09:32.109Z,2.80
2023-09-23T17:11:06.143Z,3.63
2023-09-23T17:12:39.265Z,3.30
2023-09-23T17:14:12.012Z,4.43
2023-09-23T17:15:44.804Z,2.10
2023-09-23T17:17:16.614Z,2.47
2023-09-23T17:18:49.688Z,3.07
2023-09-23T17:20:21.646Z,2.23
2023-09-23T17:21:54.730Z,1.93
2023-09-23T17:23:26.496Z,1.93
2023-09-23T17:24:59.233Z,1.77
2023-09-23T17:26:32.004Z,1.90
2023-09-23T17:28:06.711Z,1.80
2023-09-23T17:29:38.552Z,1.83
2023-09-23T17:31:11.731Z,1.73
2023-09-23T17:32:44.623Z,1.70
2023-09-23T17:34:16.506Z,1.70
2023-09-23T17:35:57.049Z,1.70
2023-09-23T17:37:28.941Z,2.00
2023-09-23T17:39:01.906Z,1.80
2023-09-23T17:40:33.657Z,1.87
2023-09-23T17:42:06.654Z,2.00
2023-09-23T17:43:39.814Z,2.10
2023-09-23T17:45:12.832Z,1.90
2023-09-23T17:46:46.450Z,1.80
2023-09-23T17:48:19.390Z,2.00
2023-09-23T17:49:51.782Z,1.70
2023-09-23T17:51:24.494Z,2.10
2023-09-23T17:52:56.231Z,2.30
2023-09-23T17:54:30.349Z,2.20
2023-09-23T17:56:02.922Z,1.70
2023-09-23T17:57:35.650Z,2.00
2023-09-23T17:59:09.669Z,1.77
2023-09-23T18:00:42.621Z,2.20
2023-09-23T18:02:14.417Z,2.50
2023-09-23T18:03:47.466Z,2.03
2023-09-23T18:05:19.680Z,1.80
2023-09-23T18:06:52.410Z,1.80
2023-09-23T18:08:24.537Z,1.90
2023-09-23T18:09:58.153Z,1.80
2023-09-23T18:11:29.929Z,1.80
2023-09-23T18:13:02.660Z,1.80
2023-09-23T18:14:35.808Z,1.70
2023-09-23T18:16:08.651Z,3.00
2023-09-23T18:17:41.446Z,2.27
2023-09-23T18:19:13.301Z,2.47
2023-09-23T18:20:46.046Z,2.13
2023-09-23T18:22:17.876Z,2.77
2023-09-23T18:23:50.892Z,4.43
2023-09-23T18:25:24.533Z,9.70
2023-09-23T18:26:56.448Z,7.97
2023-09-23T18:28:29.804Z,5.83
2023-09-23T18:30:03.117Z,7.83
2023-09-23T18:31:35.872Z,3.33
2023-09-23T18:33:07.885Z,2.37
2023-09-23T18:34:40.768Z,2.10
2023-09-23T18:36:12.602Z,1.90
2023-09-23T18:37:46.285Z,2.40
2023-09-23T18:39:18.311Z,2.10
2023-09-23T18:40:52.807Z,2.30
2023-09-23T18:42:24.719Z,2.10
2023-09-23T18:43:57.456Z,2.30
2023-09-23T18:45:30.694Z,2.20
2023-09-23T18:47:03.567Z,2.37
2023-09-23T18:48:36.423Z,2.37
2023-09-23T18:50:10.775Z,2.67
2023-09-23T18:51:43.008Z,2.40
2023-09-23T18:53:15.746Z,2.20
2023-09-23T18:54:47.547Z,2.13
2023-09-23T18:56:20.340Z,2.03
2023-09-23T18:57:52.983Z,2.20
2023-09-23T18:59:26.204Z,1.90
2023-09-23T19:01:02.470Z,2.30
2023-09-23T19:02:35.293Z,1.97
2023-09-23T19:04:07.506Z,2.10
2023-09-23T19:05:40.660Z,2.10
2023-09-23T19:07:12.771Z,2.10
2023-09-23T19:08:45.570Z,2.30
2023-09-23T19:10:18.837Z,2.10
2023-09-23T19:11:51.595Z,2.40
2023-09-23T19:13:23.401Z,2.13
2023-09-23T19:14:56.896Z,2.23
2023-09-23T19:16:31.094Z,2.00
2023-09-23T19:18:03.184Z,2.03
2023-09-23T19:19:36.241Z,2.23
2023-09-23T19:21:08.916Z,2.10
2023-09-23T19:22:40.818Z,2.20
2023-09-23T19:24:13.515Z,2.03
2023-09-23T19:25:51.386Z,2.30
2023-09-23T19:27:24.266Z,2.23
2023-09-23T19:28:57.163Z,2.27
2023-09-23T19:30:30.018Z,2.27
2023-09-23T19:32:04.059Z,2.10
2023-09-23T19:33:37.089Z,2.40
2023-09-23T19:35:09.168Z,2.00
2023-09-23T19:36:41.924Z,2.00
2023-09-23T19:38:13.724Z,2.10
2023-09-23T19:39:46.507Z,1.90
2023-09-23T19:41:18.374Z,2.00
2023-09-23T19:42:51.604Z,1.90
2023-09-23T19:44:23.578Z,1.90
2023-09-23T19:45:56.997Z,2.30
2023-09-23T19:47:30.343Z,1.87
2023-09-23T19:49:03.725Z,2.30
2023-09-23T19:50:36.239Z,1.80
2023-09-23T19:52:09.924Z,2.00
2023-09-23T19:53:41.685Z,1.83
2023-09-23T19:55:14.870Z,2.20
2023-09-23T19:56:46.654Z,1.80
2023-09-23T19:58:20.511Z,2.00
2023-09-23T19:59:52.730Z,2.20
2023-09-23T20:01:25.918Z,1.80
2023-09-23T20:02:59.767Z,2.10
2023-09-23T20:04:33.374Z,2.30
2023-09-23T20:06:05.556Z,2.13
2023-09-23T20:07:39.430Z,2.20
2023-09-23T20:09:11.920Z,2.30
2023-09-23T20:10:44.953Z,2.03
2023-09-23T20:12:16.710Z,2.30
2023-09-23T20:13:50.846Z,2.40
2023-09-23T20:15:25.236Z,2.60
2023-09-23T20:16:57.945Z,2.30
2023-09-23T20:18:31.111Z,2.60
2023-09-23T20:20:05.421Z,2.07
2023-09-23T20:21:37.352Z,2.50
2023-09-23T20:23:10.095Z,2.43
2023-09-23T20:24:41.835Z,2.30
2023-09-23T20:26:14.942Z,2.40
2023-09-23T20:27:47.037Z,2.53
2023-09-23T20:29:19.788Z,2.50
2023-09-23T20:30:58.755Z,2.43
2023-09-23T20:32:31.852Z,2.30
2023-09-23T20:34:06.113Z,2.53
2023-09-23T20:35:40.069Z,2.40
2023-09-23T20:37:13.203Z,2.30
2023-09-23T20:38:44.959Z,2.20
2023-09-23T20:40:18.836Z,2.43
2023-09-23T20:41:50.778Z,2.40